sensor_id;sensor_type;location;lat;lon;timestamp;P1;durP1;ratioP1;P2;durP2;ratioP2
25627;SDS011;40915;50.826;4.356;2023-02-15T00:01:19;39.17;;;21.80;;
25627;SDS011;40915;50.826;4.356;2023-02-15T00:03:47;41.20;;;22.70;;
25627;SDS011;40915;50.826;4.356;2023-02-15T00:06:13;39.70;;;22.53;;
25627;SDS011;40915;50.826;4.356;2023-02-15T00:08:40;40.70;;;23.53;;
25627;SDS011;40915;50.826;4.356;2023-02-15T00:11:06;39.70;;;22.67;;
25627;SDS011;40915;50.826;4.356;2023-02-15T00:13:33;42.33;;;23.17;;
25627;SDS011;40915;50.826;4.356;2023-02-15T00:16:03;39.27;;;22.30;;
25627;SDS011;40915;50.826;4.356;2023-02-15T00:18:29;42.00;;;23.37;;
25627;SDS011;40915;50.826;4.356;2023-02-15T00:20:56;42.27;;;22.97;;
25627;SDS011;40915;50.826;4.356;2023-02-15T00:23:22;43.53;;;23.30;;
25627;SDS011;40915;50.826;4.356;2023-02-15T00:25:48;46.87;;;24.93;;
25627;SDS011;40915;50.826;4.356;2023-02-15T00:28:14;40.00;;;23.30;;
25627;SDS011;40915;50.826;4.356;2023-02-15T00:30:40;45.60;;;23.73;;
25627;SDS011;40915;50.826;4.356;2023-02-15T00:33:06;46.30;;;24.87;;
25627;SDS011;40915;50.826;4.356;2023-02-15T00:35:32;40.60;;;22.60;;
25627;SDS011;40915;50.826;4.356;2023-02-15T00:37:58;42.50;;;23.33;;
25627;SDS011;40915;50.826;4.356;2023-02-15T00:40:24;41.00;;;23.77;;
25627;SDS011;40915;50.826;4.356;2023-02-15T00:42:50;42.57;;;23.93;;
25627;SDS011;40915;50.826;4.356;2023-02-15T00:45:16;42.47;;;23.97;;
25627;SDS011;40915;50.826;4.356;2023-02-15T00:47:42;42.67;;;24.70;;
25627;SDS011;40915;50.826;4.356;2023-02-15T00:50:08;42.93;;;25.20;;
25627;SDS011;40915;50.826;4.356;2023-02-15T00:52:35;48.50;;;26.50;;
25627;SDS011;40915;50.826;4.356;2023-02-15T00:55:00;47.00;;;26.30;;
25627;SDS011;40915;50.826;4.356;2023-02-15T00:57:26;44.77;;;25.77;;
25627;SDS011;40915;50.826;4.356;2023-02-15T00:59:52;45.83;;;25.83;;
25627;SDS011;40915;50.826;4.356;2023-02-15T01:02:18;42.10;;;24.50;;
25627;SDS011;40915;50.826;4.356;2023-02-15T01:04:44;44.10;;;24.97;;
25627;SDS011;40915;50.826;4.356;2023-02-15T01:07:10;44.17;;;24.67;;
25627;SDS011;40915;50.826;4.356;2023-02-15T01:09:36;43.00;;;24.80;;
25627;SDS011;40915;50.826;4.356;2023-02-15T01:12:02;44.33;;;25.53;;
25627;SDS011;40915;50.826;4.356;2023-02-15T01:14:28;42.93;;;24.57;;
25627;SDS011;40915;50.826;4.356;2023-02-15T01:16:54;45.90;;;25.47;;
25627;SDS011;40915;50.826;4.356;2023-02-15T01:19:20;41.70;;;23.43;;
25627;SDS011;40915;50.826;4.356;2023-02-15T01:21:46;42.83;;;23.70;;
25627;SDS011;40915;50.826;4.356;2023-02-15T01:24:13;41.67;;;23.83;;
25627;SDS011;40915;50.826;4.356;2023-02-15T01:26:39;48.97;;;25.30;;
25627;SDS011;40915;50.826;4.356;2023-02-15T01:29:05;39.17;;;23.00;;
25627;SDS011;40915;50.826;4.356;2023-02-15T01:31:31;43.30;;;23.67;;
25627;SDS011;40915;50.826;4.356;2023-02-15T01:33:57;46.07;;;24.70;;
25627;SDS011;40915;50.826;4.356;2023-02-15T01:36:23;43.87;;;24.13;;
25627;SDS011;40915;50.826;4.356;2023-02-15T01:38:49;44.67;;;23.53;;
25627;SDS011;40915;50.826;4.356;2023-02-15T01:41:15;42.57;;;24.43;;
25627;SDS011;40915;50.826;4.356;2023-02-15T01:43:52;45.27;;;25.43;;
25627;SDS011;40915;50.826;4.356;2023-02-15T01:46:20;45.23;;;23.60;;
25627;SDS011;40915;50.826;4.356;2023-02-15T01:48:48;44.93;;;23.97;;
25627;SDS011;40915;50.826;4.356;2023-02-15T01:51:16;47.80;;;24.00;;
25627;SDS011;40915;50.826;4.356;2023-02-15T01:53:46;42.00;;;24.03;;
25627;SDS011;40915;50.826;4.356;2023-02-15T01:56:15;47.43;;;24.07;;
25627;SDS011;40915;50.826;4.356;2023-02-15T01:58:43;39.30;;;22.43;;
25627;SDS011;40915;50.826;4.356;2023-02-15T02:01:10;41.00;;;22.47;;
25627;SDS011;40915;50.826;4.356;2023-02-15T02:03:56;39.80;;;22.57;;
25627;SDS011;40915;50.826;4.356;2023-02-15T02:06:24;39.47;;;22.97;;
25627;SDS011;40915;50.826;4.356;2023-02-15T02:08:50;38.90;;;22.47;;
25627;SDS011;40915;50.826;4.356;2023-02-15T02:11:16;45.43;;;23.67;;
25627;SDS011;40915;50.826;4.356;2023-02-15T02:13:43;41.93;;;23.47;;
25627;SDS011;40915;50.826;4.356;2023-02-15T02:16:19;38.83;;;21.87;;
25627;SDS011;40915;50.826;4.356;2023-02-15T02:18:53;39.17;;;22.03;;
25627;SDS011;40915;50.826;4.356;2023-02-15T02:31:43;41.33;;;23.30;;
25627;SDS011;40915;50.826;4.356;2023-02-15T02:34:15;39.73;;;23.23;;
25627;SDS011;40915;50.826;4.356;2023-02-15T02:39:28;40.47;;;22.17;;
25627;SDS011;40915;50.826;4.356;2023-02-15T02:42:00;36.53;;;22.03;;
25627;SDS011;40915;50.826;4.356;2023-02-15T02:47:14;35.33;;;21.43;;
25627;SDS011;40915;50.826;4.356;2023-02-15T02:49:42;39.27;;;22.80;;
25627;SDS011;40915;50.826;4.356;2023-02-15T02:54:53;40.33;;;22.63;;
25627;SDS011;40915;50.826;4.356;2023-02-15T02:57:20;40.93;;;23.27;;
25627;SDS011;40915;50.826;4.356;2023-02-15T02:59:48;35.43;;;22.27;;
25627;SDS011;40915;50.826;4.356;2023-02-15T03:02:25;38.77;;;22.90;;
25627;SDS011;40915;50.826;4.356;2023-02-15T03:04:55;42.50;;;22.87;;
25627;SDS011;40915;50.826;4.356;2023-02-15T03:07:28;39.20;;;22.47;;
25627;SDS011;40915;50.826;4.356;2023-02-15T03:09:55;42.17;;;23.70;;
25627;SDS011;40915;50.826;4.356;2023-02-15T03:12:29;38.57;;;22.87;;
25627;SDS011;40915;50.826;4.356;2023-02-15T03:14:57;40.73;;;24.30;;
25627;SDS011;40915;50.826;4.356;2023-02-15T03:17:25;42.37;;;23.67;;
25627;SDS011;40915;50.826;4.356;2023-02-15T03:19:53;36.10;;;22.50;;
25627;SDS011;40915;50.826;4.356;2023-02-15T03:22:33;37.40;;;22.30;;
25627;SDS011;40915;50.826;4.356;2023-02-15T03:27:34;38.03;;;22.83;;
25627;SDS011;40915;50.826;4.356;2023-02-15T03:30:02;40.20;;;22.87;;
25627;SDS011;40915;50.826;4.356;2023-02-15T03:32:29;36.90;;;21.47;;
25627;SDS011;40915;50.826;4.356;2023-02-15T03:34:56;38.33;;;23.17;;
25627;SDS011;40915;50.826;4.356;2023-02-15T03:37:34;39.63;;;22.90;;
25627;SDS011;40915;50.826;4.356;2023-02-15T03:40:09;38.53;;;22.83;;
25627;SDS011;40915;50.826;4.356;2023-02-15T03:42:59;36.80;;;23.13;;
25627;SDS011;40915;50.826;4.356;2023-02-15T03:45:27;36.87;;;22.23;;
25627;SDS011;40915;50.826;4.356;2023-02-15T03:47:54;35.10;;;22.17;;
25627;SDS011;40915;50.826;4.356;2023-02-15T03:50:23;39.17;;;22.63;;
25627;SDS011;40915;50.826;4.356;2023-02-15T03:53:10;43.07;;;24.37;;
25627;SDS011;40915;50.826;4.356;2023-02-15T03:55:37;38.43;;;22.93;;
25627;SDS011;40915;50.826;4.356;2023-02-15T03:58:03;36.57;;;22.77;;
25627;SDS011;40915;50.826;4.356;2023-02-15T04:00:58;39.30;;;22.80;;
25627;SDS011;40915;50.826;4.356;2023-02-15T04:03:51;33.73;;;21.87;;
25627;SDS011;40915;50.826;4.356;2023-02-15T04:06:20;35.83;;;22.37;;
25627;SDS011;40915;50.826;4.356;2023-02-15T04:08:46;37.20;;;22.87;;
25627;SDS011;40915;50.826;4.356;2023-02-15T04:11:30;36.90;;;22.97;;
25627;SDS011;40915;50.826;4.356;2023-02-15T04:13:56;35.00;;;22.13;;
25627;SDS011;40915;50.826;4.356;2023-02-15T04:16:23;36.87;;;22.53;;
25627;SDS011;40915;50.826;4.356;2023-02-15T04:18:49;36.83;;;21.87;;
25627;SDS011;40915;50.826;4.356;2023-02-15T04:21:34;34.23;;;21.40;;
25627;SDS011;40915;50.826;4.356;2023-02-15T04:24:18;35.17;;;21.23;;
25627;SDS011;40915;50.826;4.356;2023-02-15T04:27:03;34.37;;;20.80;;
25627;SDS011;40915;50.826;4.356;2023-02-15T04:29:30;35.90;;;21.30;;
25627;SDS011;40915;50.826;4.356;2023-02-15T04:32:00;39.70;;;22.10;;
25627;SDS011;40915;50.826;4.356;2023-02-15T04:34:27;37.73;;;22.23;;
25627;SDS011;40915;50.826;4.356;2023-02-15T04:36:52;32.23;;;20.27;;
25627;SDS011;40915;50.826;4.356;2023-02-15T04:39:18;36.73;;;20.53;;
25627;SDS011;40915;50.826;4.356;2023-02-15T04:41:44;38.93;;;22.07;;
25627;SDS011;40915;50.826;4.356;2023-02-15T04:44:11;33.27;;;20.93;;
25627;SDS011;40915;50.826;4.356;2023-02-15T04:46:37;35.67;;;20.73;;
25627;SDS011;40915;50.826;4.356;2023-02-15T04:49:03;36.50;;;21.43;;
25627;SDS011;40915;50.826;4.356;2023-02-15T04:51:29;35.43;;;21.77;;
25627;SDS011;40915;50.826;4.356;2023-02-15T04:53:55;34.73;;;20.10;;
25627;SDS011;40915;50.826;4.356;2023-02-15T04:56:21;34.47;;;21.03;;
25627;SDS011;40915;50.826;4.356;2023-02-15T04:58:48;35.93;;;20.90;;
25627;SDS011;40915;50.826;4.356;2023-02-15T05:01:14;34.90;;;20.10;;
25627;SDS011;40915;50.826;4.356;2023-02-15T05:03:40;33.27;;;19.90;;
25627;SDS011;40915;50.826;4.356;2023-02-15T05:06:06;34.20;;;20.20;;
25627;SDS011;40915;50.826;4.356;2023-02-15T05:08:31;34.90;;;20.83;;
25627;SDS011;40915;50.826;4.356;2023-02-15T05:10:58;35.43;;;21.17;;
25627;SDS011;40915;50.826;4.356;2023-02-15T05:13:24;36.47;;;20.83;;
25627;SDS011;40915;50.826;4.356;2023-02-15T05:15:50;38.13;;;21.30;;
25627;SDS011;40915;50.826;4.356;2023-02-15T05:18:17;36.90;;;21.57;;
25627;SDS011;40915;50.826;4.356;2023-02-15T05:20:43;42.30;;;22.03;;
25627;SDS011;40915;50.826;4.356;2023-02-15T05:23:09;38.83;;;21.97;;
25627;SDS011;40915;50.826;4.356;2023-02-15T05:25:35;36.40;;;21.73;;
25627;SDS011;40915;50.826;4.356;2023-02-15T05:28:27;37.77;;;22.30;;
25627;SDS011;40915;50.826;4.356;2023-02-15T05:31:02;38.47;;;21.20;;
25627;SDS011;40915;50.826;4.356;2023-02-15T05:33:28;35.47;;;22.10;;
25627;SDS011;40915;50.826;4.356;2023-02-15T05:35:54;35.70;;;21.80;;
25627;SDS011;40915;50.826;4.356;2023-02-15T05:38:20;39.50;;;22.00;;
25627;SDS011;40915;50.826;4.356;2023-02-15T05:40:46;44.40;;;23.80;;
25627;SDS011;40915;50.826;4.356;2023-02-15T05:43:12;38.83;;;21.50;;
25627;SDS011;40915;50.826;4.356;2023-02-15T05:45:38;40.10;;;22.13;;
25627;SDS011;40915;50.826;4.356;2023-02-15T05:48:04;36.67;;;22.17;;
25627;SDS011;40915;50.826;4.356;2023-02-15T05:50:30;33.10;;;21.00;;
25627;SDS011;40915;50.826;4.356;2023-02-15T05:52:56;41.70;;;21.57;;
25627;SDS011;40915;50.826;4.356;2023-02-15T05:55:22;41.43;;;21.87;;
25627;SDS011;40915;50.826;4.356;2023-02-15T05:57:48;36.00;;;20.83;;
25627;SDS011;40915;50.826;4.356;2023-02-15T06:00:14;39.10;;;22.07;;
25627;SDS011;40915;50.826;4.356;2023-02-15T06:02:40;35.50;;;20.20;;
25627;SDS011;40915;50.826;4.356;2023-02-15T06:05:07;40.53;;;21.47;;
25627;SDS011;40915;50.826;4.356;2023-02-15T06:07:33;39.93;;;22.10;;
25627;SDS011;40915;50.826;4.356;2023-02-15T06:09:59;36.77;;;21.93;;
25627;SDS011;40915;50.826;4.356;2023-02-15T06:12:25;38.67;;;22.43;;
25627;SDS011;40915;50.826;4.356;2023-02-15T06:14:51;38.23;;;21.67;;
25627;SDS011;40915;50.826;4.356;2023-02-15T06:17:17;37.33;;;22.03;;
25627;SDS011;40915;50.826;4.356;2023-02-15T06:19:43;41.73;;;22.80;;
25627;SDS011;40915;50.826;4.356;2023-02-15T06:22:09;37.37;;;22.20;;
25627;SDS011;40915;50.826;4.356;2023-02-15T06:24:35;42.40;;;22.60;;
25627;SDS011;40915;50.826;4.356;2023-02-15T06:27:01;36.83;;;21.30;;
25627;SDS011;40915;50.826;4.356;2023-02-15T06:29:26;39.73;;;22.20;;
25627;SDS011;40915;50.826;4.356;2023-02-15T06:31:52;41.30;;;23.97;;
25627;SDS011;40915;50.826;4.356;2023-02-15T06:34:18;44.27;;;24.07;;
25627;SDS011;40915;50.826;4.356;2023-02-15T06:36:44;36.93;;;21.67;;
25627;SDS011;40915;50.826;4.356;2023-02-15T06:39:10;40.50;;;22.73;;
25627;SDS011;40915;50.826;4.356;2023-02-15T06:41:36;42.27;;;23.53;;
25627;SDS011;40915;50.826;4.356;2023-02-15T06:44:02;42.93;;;22.90;;
25627;SDS011;40915;50.826;4.356;2023-02-15T06:46:28;43.57;;;23.13;;
25627;SDS011;40915;50.826;4.356;2023-02-15T06:48:54;43.10;;;22.50;;
25627;SDS011;40915;50.826;4.356;2023-02-15T06:51:20;39.67;;;22.57;;
25627;SDS011;40915;50.826;4.356;2023-02-15T06:53:46;40.33;;;22.67;;
25627;SDS011;40915;50.826;4.356;2023-02-15T06:56:12;40.30;;;22.83;;
25627;SDS011;40915;50.826;4.356;2023-02-15T06:58:39;46.90;;;24.07;;
25627;SDS011;40915;50.826;4.356;2023-02-15T07:01:05;39.53;;;23.50;;
25627;SDS011;40915;50.826;4.356;2023-02-15T07:03:31;38.97;;;22.37;;
25627;SDS011;40915;50.826;4.356;2023-02-15T07:05:58;39.50;;;22.93;;
25627;SDS011;40915;50.826;4.356;2023-02-15T07:08:25;37.90;;;22.97;;
25627;SDS011;40915;50.826;4.356;2023-02-15T07:10:51;42.37;;;23.77;;
25627;SDS011;40915;50.826;4.356;2023-02-15T07:13:18;41.23;;;23.40;;
25627;SDS011;40915;50.826;4.356;2023-02-15T07:15:45;42.27;;;23.40;;
25627;SDS011;40915;50.826;4.356;2023-02-15T07:18:11;40.27;;;21.90;;
25627;SDS011;40915;50.826;4.356;2023-02-15T07:20:37;37.27;;;22.43;;
25627;SDS011;40915;50.826;4.356;2023-02-15T07:23:06;40.67;;;22.53;;
25627;SDS011;40915;50.826;4.356;2023-02-15T07:25:33;40.77;;;22.70;;
25627;SDS011;40915;50.826;4.356;2023-02-15T07:27:59;40.17;;;22.27;;
25627;SDS011;40915;50.826;4.356;2023-02-15T07:30:26;49.00;;;25.47;;
25627;SDS011;40915;50.826;4.356;2023-02-15T07:32:55;39.70;;;22.13;;
25627;SDS011;40915;50.826;4.356;2023-02-15T07:35:47;38.13;;;21.17;;
25627;SDS011;40915;50.826;4.356;2023-02-15T07:38:13;40.37;;;21.33;;
25627;SDS011;40915;50.826;4.356;2023-02-15T07:40:39;37.47;;;22.53;;
25627;SDS011;40915;50.826;4.356;2023-02-15T07:43:05;41.77;;;21.27;;
25627;SDS011;40915;50.826;4.356;2023-02-15T07:45:31;42.87;;;21.90;;
25627;SDS011;40915;50.826;4.356;2023-02-15T07:47:57;50.63;;;22.23;;
25627;SDS011;40915;50.826;4.356;2023-02-15T07:50:23;36.70;;;21.87;;
25627;SDS011;40915;50.826;4.356;2023-02-15T07:52:49;37.90;;;21.43;;
25627;SDS011;40915;50.826;4.356;2023-02-15T07:55:15;45.10;;;23.07;;
25627;SDS011;40915;50.826;4.356;2023-02-15T07:57:42;41.73;;;21.53;;
25627;SDS011;40915;50.826;4.356;2023-02-15T08:00:09;45.33;;;22.40;;
25627;SDS011;40915;50.826;4.356;2023-02-15T08:02:36;38.03;;;20.70;;
25627;SDS011;40915;50.826;4.356;2023-02-15T08:05:02;39.70;;;20.63;;
25627;SDS011;40915;50.826;4.356;2023-02-15T08:07:28;37.33;;;19.40;;
25627;SDS011;40915;50.826;4.356;2023-02-15T08:09:54;41.00;;;22.13;;
25627;SDS011;40915;50.826;4.356;2023-02-15T08:12:20;40.53;;;20.63;;
25627;SDS011;40915;50.826;4.356;2023-02-15T08:14:46;34.57;;;19.27;;
25627;SDS011;40915;50.826;4.356;2023-02-15T08:17:12;41.23;;;20.80;;
25627;SDS011;40915;50.826;4.356;2023-02-15T08:19:38;34.57;;;19.17;;
25627;SDS011;40915;50.826;4.356;2023-02-15T08:22:05;33.23;;;18.63;;
25627;SDS011;40915;50.826;4.356;2023-02-15T08:24:33;35.60;;;20.60;;
25627;SDS011;40915;50.826;4.356;2023-02-15T08:26:59;34.07;;;18.93;;
25627;SDS011;40915;50.826;4.356;2023-02-15T08:29:28;34.07;;;18.13;;
25627;SDS011;40915;50.826;4.356;2023-02-15T08:31:55;34.07;;;19.03;;
25627;SDS011;40915;50.826;4.356;2023-02-15T08:34:26;32.97;;;17.33;;
25627;SDS011;40915;50.826;4.356;2023-02-15T08:36:53;36.07;;;19.03;;
25627;SDS011;40915;50.826;4.356;2023-02-15T08:39:19;30.50;;;17.50;;
25627;SDS011;40915;50.826;4.356;2023-02-15T08:41:46;45.60;;;19.07;;
25627;SDS011;40915;50.826;4.356;2023-02-15T08:44:13;35.13;;;18.43;;
25627;SDS011;40915;50.826;4.356;2023-02-15T08:46:40;33.90;;;18.30;;
25627;SDS011;40915;50.826;4.356;2023-02-15T08:49:06;36.30;;;18.00;;
25627;SDS011;40915;50.826;4.356;2023-02-15T08:51:33;34.33;;;18.43;;
25627;SDS011;40915;50.826;4.356;2023-02-15T08:54:02;34.00;;;17.87;;
25627;SDS011;40915;50.826;4.356;2023-02-15T08:56:31;34.00;;;17.97;;
25627;SDS011;40915;50.826;4.356;2023-02-15T08:58:58;31.57;;;17.90;;
25627;SDS011;40915;50.826;4.356;2023-02-15T09:01:25;48.93;;;19.77;;
25627;SDS011;40915;50.826;4.356;2023-02-15T09:03:54;32.17;;;18.20;;
25627;SDS011;40915;50.826;4.356;2023-02-15T09:06:21;33.50;;;18.30;;
25627;SDS011;40915;50.826;4.356;2023-02-15T09:08:50;38.53;;;18.70;;
25627;SDS011;40915;50.826;4.356;2023-02-15T09:11:18;38.47;;;18.70;;
25627;SDS011;40915;50.826;4.356;2023-02-15T09:13:48;38.73;;;20.20;;
25627;SDS011;40915;50.826;4.356;2023-02-15T09:16:14;39.80;;;20.13;;
25627;SDS011;40915;50.826;4.356;2023-02-15T09:18:43;37.53;;;19.43;;
25627;SDS011;40915;50.826;4.356;2023-02-15T09:21:11;38.60;;;18.90;;
25627;SDS011;40915;50.826;4.356;2023-02-15T09:23:41;37.70;;;18.45;;
25627;SDS011;40915;50.826;4.356;2023-02-15T09:26:08;31.37;;;18.27;;
25627;SDS011;40915;50.826;4.356;2023-02-15T09:28:34;33.00;;;17.83;;
25627;SDS011;40915;50.826;4.356;2023-02-15T09:31:36;46.97;;;20.60;;
25627;SDS011;40915;50.826;4.356;2023-02-15T09:33:53;35.63;;;18.10;;
25627;SDS011;40915;50.826;4.356;2023-02-15T09:38:46;38.63;;;18.10;;
25627;SDS011;40915;50.826;4.356;2023-02-15T09:43:55;34.30;;;18.40;;
25627;SDS011;40915;50.826;4.356;2023-02-15T09:46:27;42.40;;;20.00;;
25627;SDS011;40915;50.826;4.356;2023-02-15T09:48:56;31.77;;;18.38;;
25627;SDS011;40915;50.826;4.356;2023-02-15T09:54:06;35.97;;;17.80;;
25627;SDS011;40915;50.826;4.356;2023-02-15T09:56:38;36.97;;;18.70;;
25627;SDS011;40915;50.826;4.356;2023-02-15T10:07:00;34.95;;;18.02;;
25627;SDS011;40915;50.826;4.356;2023-02-15T10:09:34;36.67;;;18.83;;
25627;SDS011;40915;50.826;4.356;2023-02-15T10:12:11;33.20;;;19.30;;
25627;SDS011;40915;50.826;4.356;2023-02-15T10:17:42;32.93;;;18.80;;
25627;SDS011;40915;50.826;4.356;2023-02-15T10:27:48;33.27;;;19.10;;
25627;SDS011;40915;50.826;4.356;2023-02-15T10:30:15;42.08;;;20.33;;
25627;SDS011;40915;50.826;4.356;2023-02-15T10:32:47;36.42;;;20.70;;
25627;SDS011;40915;50.826;4.356;2023-02-15T10:43:05;42.38;;;21.15;;
25627;SDS011;40915;50.826;4.356;2023-02-15T10:50:57;40.22;;;21.52;;
25627;SDS011;40915;50.826;4.356;2023-02-15T10:55:56;39.45;;;20.40;;
25627;SDS011;40915;50.826;4.356;2023-02-15T11:06:17;29.95;;;19.50;;
25627;SDS011;40915;50.826;4.356;2023-02-15T11:08:45;33.38;;;19.83;;
25627;SDS011;40915;50.826;4.356;2023-02-15T11:11:14;39.38;;;20.30;;
25627;SDS011;40915;50.826;4.356;2023-02-15T11:13:46;34.35;;;18.98;;
25627;SDS011;40915;50.826;4.356;2023-02-15T11:16:14;36.58;;;19.52;;
25627;SDS011;40915;50.826;4.356;2023-02-15T11:18:43;37.55;;;20.48;;
25627;SDS011;40915;50.826;4.356;2023-02-15T11:21:20;33.33;;;19.63;;
25627;SDS011;40915;50.826;4.356;2023-02-15T11:23:47;34.55;;;20.77;;
25627;SDS011;40915;50.826;4.356;2023-02-15T11:26:15;36.20;;;19.65;;
25627;SDS011;40915;50.826;4.356;2023-02-15T11:31:21;34.17;;;21.08;;
25627;SDS011;40915;50.826;4.356;2023-02-15T11:33:51;34.00;;;19.73;;
25627;SDS011;40915;50.826;4.356;2023-02-15T11:36:20;39.15;;;21.00;;
25627;SDS011;40915;50.826;4.356;2023-02-15T11:38:47;39.38;;;21.45;;
25627;SDS011;40915;50.826;4.356;2023-02-15T11:41:16;42.58;;;21.70;;
25627;SDS011;40915;50.826;4.356;2023-02-15T11:43:54;54.28;;;23.88;;
25627;SDS011;40915;50.826;4.356;2023-02-15T11:46:22;38.17;;;22.30;;
25627;SDS011;40915;50.826;4.356;2023-02-15T11:48:48;38.65;;;22.38;;
25627;SDS011;40915;50.826;4.356;2023-02-15T11:51:16;41.42;;;22.30;;
25627;SDS011;40915;50.826;4.356;2023-02-15T11:53:42;41.30;;;23.17;;
25627;SDS011;40915;50.826;4.356;2023-02-15T11:56:16;40.42;;;22.10;;
25627;SDS011;40915;50.826;4.356;2023-02-15T11:58:44;38.50;;;21.52;;
25627;SDS011;40915;50.826;4.356;2023-02-15T12:03:59;39.25;;;22.58;;
25627;SDS011;40915;50.826;4.356;2023-02-15T12:06:28;35.85;;;21.85;;
25627;SDS011;40915;50.826;4.356;2023-02-15T12:09:05;47.03;;;24.05;;
25627;SDS011;40915;50.826;4.356;2023-02-15T12:11:36;53.13;;;24.17;;
25627;SDS011;40915;50.826;4.356;2023-02-15T12:14:04;59.00;;;24.15;;
25627;SDS011;40915;50.826;4.356;2023-02-15T12:16:39;39.35;;;22.83;;
25627;SDS011;40915;50.826;4.356;2023-02-15T12:19:09;35.67;;;20.73;;
25627;SDS011;40915;50.826;4.356;2023-02-15T12:21:39;49.33;;;24.80;;
25627;SDS011;40915;50.826;4.356;2023-02-15T12:24:15;49.22;;;24.15;;
25627;SDS011;40915;50.826;4.356;2023-02-15T12:26:43;39.72;;;21.98;;
25627;SDS011;40915;50.826;4.356;2023-02-15T12:29:15;64.97;;;26.77;;
25627;SDS011;40915;50.826;4.356;2023-02-15T12:31:42;43.30;;;24.83;;
25627;SDS011;40915;50.826;4.356;2023-02-15T12:34:12;38.10;;;22.55;;
25627;SDS011;40915;50.826;4.356;2023-02-15T12:36:40;47.42;;;24.60;;
25627;SDS011;40915;50.826;4.356;2023-02-15T12:41:37;45.58;;;26.02;;
25627;SDS011;40915;50.826;4.356;2023-02-15T12:49:23;38.70;;;23.45;;
25627;SDS011;40915;50.826;4.356;2023-02-15T12:51:50;38.42;;;23.80;;
25627;SDS011;40915;50.826;4.356;2023-02-15T12:56:48;45.33;;;25.10;;
25627;SDS011;40915;50.826;4.356;2023-02-15T12:59:14;41.55;;;23.77;;
25627;SDS011;40915;50.826;4.356;2023-02-15T13:01:41;41.13;;;23.88;;
25627;SDS011;40915;50.826;4.356;2023-02-15T13:06:49;39.78;;;23.83;;
25627;SDS011;40915;50.826;4.356;2023-02-15T13:12:08;36.22;;;23.15;;
25627;SDS011;40915;50.826;4.356;2023-02-15T13:14:35;45.63;;;24.77;;
25627;SDS011;40915;50.826;4.356;2023-02-15T13:17:02;37.17;;;23.45;;
25627;SDS011;40915;50.826;4.356;2023-02-15T13:19:31;40.88;;;24.25;;
25627;SDS011;40915;50.826;4.356;2023-02-15T13:21:59;40.85;;;24.38;;
25627;SDS011;40915;50.826;4.356;2023-02-15T13:24:32;43.05;;;23.52;;
25627;SDS011;40915;50.826;4.356;2023-02-15T13:26:59;47.72;;;25.45;;
25627;SDS011;40915;50.826;4.356;2023-02-15T13:29:26;41.95;;;24.05;;
25627;SDS011;40915;50.826;4.356;2023-02-15T13:31:53;43.30;;;24.40;;
25627;SDS011;40915;50.826;4.356;2023-02-15T13:34:22;39.95;;;23.98;;
25627;SDS011;40915;50.826;4.356;2023-02-15T13:39:47;46.30;;;25.52;;
25627;SDS011;40915;50.826;4.356;2023-02-15T13:42:29;45.45;;;25.77;;
25627;SDS011;40915;50.826;4.356;2023-02-15T13:45:05;43.88;;;25.27;;
25627;SDS011;40915;50.826;4.356;2023-02-15T13:58:18;47.03;;;26.25;;
25627;SDS011;40915;50.826;4.356;2023-02-15T14:05:59;46.70;;;28.00;;
25627;SDS011;40915;50.826;4.356;2023-02-15T14:11:05;47.70;;;27.65;;
25627;SDS011;40915;50.826;4.356;2023-02-15T14:16:20;46.22;;;27.45;;
25627;SDS011;40915;50.826;4.356;2023-02-15T14:21:31;48.47;;;28.88;;
25627;SDS011;40915;50.826;4.356;2023-02-15T14:31:43;46.72;;;29.30;;
25627;SDS011;40915;50.826;4.356;2023-02-15T14:34:17;51.50;;;29.08;;
25627;SDS011;40915;50.826;4.356;2023-02-15T14:36:43;47.47;;;28.17;;
25627;SDS011;40915;50.826;4.356;2023-02-15T14:39:23;50.45;;;27.88;;
25627;SDS011;40915;50.826;4.356;2023-02-15T14:42:34;50.33;;;28.90;;
25627;SDS011;40915;50.826;4.356;2023-02-15T14:45:00;46.95;;;28.10;;
25627;SDS011;40915;50.826;4.356;2023-02-15T14:49:56;48.00;;;28.77;;
25627;SDS011;40915;50.826;4.356;2023-02-15T14:52:22;51.65;;;29.08;;
25627;SDS011;40915;50.826;4.356;2023-02-15T14:59:41;53.92;;;28.83;;
25627;SDS011;40915;50.826;4.356;2023-02-15T15:04:34;46.88;;;29.40;;
25627;SDS011;40915;50.826;4.356;2023-02-15T15:07:08;51.05;;;29.30;;
25627;SDS011;40915;50.826;4.356;2023-02-15T15:09:39;46.70;;;29.00;;
25627;SDS011;40915;50.826;4.356;2023-02-15T15:12:13;53.25;;;30.65;;
25627;SDS011;40915;50.826;4.356;2023-02-15T15:14:43;47.30;;;31.08;;
25627;SDS011;40915;50.826;4.356;2023-02-15T15:17:11;49.50;;;31.05;;
25627;SDS011;40915;50.826;4.356;2023-02-15T15:22:19;48.88;;;30.48;;
25627;SDS011;40915;50.826;4.356;2023-02-15T15:24:46;51.60;;;30.85;;
25627;SDS011;40915;50.826;4.356;2023-02-15T15:29:56;47.85;;;31.13;;
25627;SDS011;40915;50.826;4.356;2023-02-15T15:32:22;53.03;;;29.90;;
25627;SDS011;40915;50.826;4.356;2023-02-15T15:42:42;45.17;;;28.60;;
25627;SDS011;40915;50.826;4.356;2023-02-15T15:50:15;57.33;;;31.05;;
25627;SDS011;40915;50.826;4.356;2023-02-15T15:52:58;51.25;;;30.52;;
25627;SDS011;40915;50.826;4.356;2023-02-15T15:55:25;49.58;;;30.20;;
25627;SDS011;40915;50.826;4.356;2023-02-15T15:58:02;58.47;;;32.65;;
25627;SDS011;40915;50.826;4.356;2023-02-15T16:02:56;50.38;;;30.20;;
25627;SDS011;40915;50.826;4.356;2023-02-15T16:05:22;55.50;;;31.45;;
25627;SDS011;40915;50.826;4.356;2023-02-15T16:07:48;55.42;;;30.63;;
25627;SDS011;40915;50.826;4.356;2023-02-15T16:10:36;51.95;;;31.08;;
25627;SDS011;40915;50.826;4.356;2023-02-15T16:13:02;50.10;;;30.10;;
25627;SDS011;40915;50.826;4.356;2023-02-15T16:17:57;52.20;;;31.52;;
25627;SDS011;40915;50.826;4.356;2023-02-15T16:20:26;56.25;;;30.90;;
25627;SDS011;40915;50.826;4.356;2023-02-15T16:23:00;54.88;;;32.08;;
25627;SDS011;40915;50.826;4.356;2023-02-15T16:25:40;58.03;;;33.63;;
25627;SDS011;40915;50.826;4.356;2023-02-15T16:28:08;52.83;;;32.13;;
25627;SDS011;40915;50.826;4.356;2023-02-15T16:30:37;53.03;;;31.20;;
25627;SDS011;40915;50.826;4.356;2023-02-15T16:33:06;55.22;;;31.20;;
25627;SDS011;40915;50.826;4.356;2023-02-15T16:35:32;53.22;;;30.27;;
25627;SDS011;40915;50.826;4.356;2023-02-15T16:37:59;54.65;;;31.17;;
25627;SDS011;40915;50.826;4.356;2023-02-15T16:42:52;50.78;;;30.15;;
25627;SDS011;40915;50.826;4.356;2023-02-15T16:45:19;57.05;;;32.30;;
25627;SDS011;40915;50.826;4.356;2023-02-15T16:47:49;51.20;;;30.27;;
25627;SDS011;40915;50.826;4.356;2023-02-15T16:50:17;50.47;;;31.23;;
25627;SDS011;40915;50.826;4.356;2023-02-15T16:52:44;50.90;;;30.65;;
25627;SDS011;40915;50.826;4.356;2023-02-15T16:55:17;55.17;;;32.03;;
25627;SDS011;40915;50.826;4.356;2023-02-15T16:57:44;56.42;;;32.80;;
25627;SDS011;40915;50.826;4.356;2023-02-15T17:00:17;49.63;;;31.67;;
25627;SDS011;40915;50.826;4.356;2023-02-15T17:02:54;47.38;;;31.35;;
25627;SDS011;40915;50.826;4.356;2023-02-15T17:05:20;58.08;;;36.95;;
25627;SDS011;40915;50.826;4.356;2023-02-15T17:07:50;51.40;;;32.83;;
25627;SDS011;40915;50.826;4.356;2023-02-15T17:10:25;54.40;;;32.28;;
25627;SDS011;40915;50.826;4.356;2023-02-15T17:12:52;65.72;;;38.72;;